Time;durP1;ratioP1;P1;durP2;ratioP2;P2;SDS_P1;SDS_P2;PMS_P1;PMS_P2;Temp;Humidity;BMP_temperature;BMP_pressure;BME280_temperature;BME280_humidity;BME280_pressure;Samples;Min_cycle;Max_cycle;Signal;HPM_P1;HPM_P2
2022/07/05 00:02:06;;;;;;;4.63;4.30;;;;;;;;;;4971476;28;21063;-91
2022/07/05 00:04:32;;;;;;;4.60;4.50;;;;;;;;;;4986528;28;20471;-89
2022/07/05 00:09:44;;;;;;;4.50;4.40;;;;;;;;;;4973904;29;20405;-90
2022/07/05 00:12:12;;;;;;;4.70;4.50;;;;;;;;;;4985405;28;20447;-89
2022/07/05 00:14:38;;;;;;;5.00;4.80;;;;;;;;;;4983203;28;20496;-90
2022/07/05 00:17:07;;;;;;;4.07;3.97;;;;;;;;;;4973218;28;20439;-89
2022/07/05 00:19:34;;;;;;;5.13;4.93;;;;;;;;;;4982084;28;20464;-89
2022/07/05 00:22:00;;;;;;;5.13;4.70;;;;;;;;;;4988664;28;20433;-89
2022/07/05 00:24:26;;;;;;;5.40;5.30;;;;;;;;;;4963877;28;20856;-88
2022/07/05 00:26:52;;;;;;;5.70;5.40;;;;;;;;;;4976273;28;20486;-89
2022/07/05 00:29:18;;;;;;;8.43;7.90;;;;;;;;;;4999872;28;20424;-89
2022/07/05 00:31:44;;;;;;;7.17;6.57;;;;;;;;;;4993029;28;20436;-89
2022/07/05 00:34:10;;;;;;;7.47;7.10;;;;;;;;;;4981726;28;20547;-90
2022/07/05 00:36:37;;;;;;;5.67;5.47;;;;;;;;;;4978581;28;20432;-90
2022/07/05 00:39:03;;;;;;;4.67;4.57;;;;;;;;;;4978069;28;20468;-89
2022/07/05 00:41:29;;;;;;;4.37;4.10;;;;;;;;;;4978380;28;20835;-90
2022/07/05 00:43:59;;;;;;;4.47;4.17;;;;;;;;;;4995693;28;20409;-89
2022/07/05 00:46:26;;;;;;;4.60;4.40;;;;;;;;;;4978003;28;20531;-88
2022/07/05 00:48:52;;;;;;;3.77;3.67;;;;;;;;;;4986410;28;20429;-90
2022/07/05 00:51:18;;;;;;;3.93;3.83;;;;;;;;;;4978609;28;21082;-90
2022/07/05 00:53:44;;;;;;;4.67;4.30;;;;;;;;;;4977568;28;20788;-90
2022/07/05 00:56:10;;;;;;;4.23;3.93;;;;;;;;;;4977554;28;20428;-90
2022/07/05 00:58:36;;;;;;;5.00;4.70;;;;;;;;;;4979235;28;20462;-90
2022/07/05 01:01:03;;;;;;;4.90;4.60;;;;;;;;;;4958901;28;20823;-90
2022/07/05 01:03:29;;;;;;;4.80;4.63;;;;;;;;;;4950746;28;20460;-88
2022/07/05 01:05:55;;;;;;;5.80;5.60;;;;;;;;;;4982077;28;20437;-89
2022/07/05 01:08:22;;;;;;;3.97;3.90;;;;;;;;;;4980055;28;20417;-90
2022/07/05 01:10:47;;;;;;;4.23;4.20;;;;;;;;;;4979973;28;20515;-89
2022/07/05 01:13:14;;;;;;;4.17;3.93;;;;;;;;;;4940627;28;20481;-90
2022/07/05 01:15:41;;;;;;;4.67;4.57;;;;;;;;;;4978016;28;20432;-90
2022/07/05 01:18:08;;;;;;;4.20;4.20;;;;;;;;;;4955267;28;20497;-90
2022/07/05 01:20:34;;;;;;;4.70;4.60;;;;;;;;;;4967196;28;20476;-89
2022/07/05 01:23:02;;;;;;;5.13;4.57;;;;;;;;;;4961729;28;20452;-90
2022/07/05 01:25:28;;;;;;;5.40;5.20;;;;;;;;;;4975679;28;20451;-89
2022/07/05 01:27:55;;;;;;;4.47;4.37;;;;;;;;;;4975356;28;20512;-90
2022/07/05 01:30:21;;;;;;;5.03;4.87;;;;;;;;;;4978462;28;20440;-88
2022/07/05 01:32:47;;;;;;;4.63;4.33;;;;;;;;;;4960283;28;20449;-90
2022/07/05 01:35:13;;;;;;;5.03;4.93;;;;;;;;;;4958251;28;20468;-90
2022/07/05 01:37:40;;;;;;;4.70;4.50;;;;;;;;;;4955422;28;20522;-90
2022/07/05 01:40:07;;;;;;;5.63;4.90;;;;;;;;;;4972149;28;20466;-90
2022/07/05 01:42:33;;;;;;;4.63;4.53;;;;;;;;;;4972797;28;20433;-90
2022/07/05 01:44:59;;;;;;;5.57;5.37;;;;;;;;;;4976505;28;20547;-89
2022/07/05 01:47:25;;;;;;;5.90;5.67;;;;;;;;;;4962472;28;20561;-90
2022/07/05 01:49:54;;;;;;;5.50;5.00;;;;;;;;;;4975970;28;20800;-89
2022/07/05 01:52:21;;;;;;;4.37;4.27;;;;;;;;;;4982161;28;20445;-90
2022/07/05 01:54:47;;;;;;;4.50;4.10;;;;;;;;;;4976359;28;20429;-89
2022/07/05 01:57:14;;;;;;;4.90;4.50;;;;;;;;;;4985695;28;21102;-90
2022/07/05 01:59:40;;;;;;;3.80;3.60;;;;;;;;;;4975458;28;20481;-90
2022/07/05 02:02:07;;;;;;;3.87;3.83;;;;;;;;;;4991024;28;20930;-90
2022/07/05 02:04:36;;;;;;;4.67;4.37;;;;;;;;;;4975543;28;20436;-89
2022/07/05 02:07:05;;;;;;;4.47;4.37;;;;;;;;;;4984227;28;20863;-89
2022/07/05 02:09:32;;;;;;;4.43;4.20;;;;;;;;;;4974661;28;20798;-90
2022/07/05 02:11:58;;;;;;;6.10;5.73;;;;;;;;;;4974073;28;20442;-89
2022/07/05 02:14:24;;;;;;;5.10;4.90;;;;;;;;;;4975119;28;20428;-90
2022/07/05 02:16:50;;;;;;;4.93;4.63;;;;;;;;;;4969904;28;21030;-89
2022/07/05 02:19:16;;;;;;;5.00;4.70;;;;;;;;;;4962724;28;20813;-89
2022/07/05 02:21:42;;;;;;;4.63;4.50;;;;;;;;;;4987766;28;20460;-89
2022/07/05 02:24:08;;;;;;;5.07;4.88;;;;;;;;;;4986432;28;20908;-89
2022/07/05 02:26:34;;;;;;;4.60;4.47;;;;;;;;;;4963140;28;20402;-90
2022/07/05 02:29:00;;;;;;;4.80;4.70;;;;;;;;;;4953547;28;20191;-90
2022/07/05 02:31:26;;;;;;;5.60;5.50;;;;;;;;;;4988696;28;20729;-90
2022/07/05 02:33:56;;;;;;;5.55;5.35;;;;;;;;;;4985119;28;20423;-90
2022/07/05 02:36:23;;;;;;;5.90;5.70;;;;;;;;;;4975310;28;20918;-90
2022/07/05 02:38:49;;;;;;;4.87;4.77;;;;;;;;;;4955382;29;20202;-90
2022/07/05 02:41:15;;;;;;;4.82;4.63;;;;;;;;;;4962172;28;20496;-89
2022/07/05 02:43:41;;;;;;;5.60;5.30;;;;;;;;;;4945679;28;20388;-90
2022/07/05 02:46:08;;;;;;;5.87;5.57;;;;;;;;;;4958436;28;20187;-90
2022/07/05 02:48:34;;;;;;;7.45;7.05;;;;;;;;;;4971093;28;20479;-89
2022/07/05 02:51:00;;;;;;;6.05;5.50;;;;;;;;;;4949974;28;20410;-88
2022/07/05 02:53:26;;;;;;;4.43;4.33;;;;;;;;;;4959431;28;20563;-90
2022/07/05 02:55:52;;;;;;;4.87;4.77;;;;;;;;;;4956304;28;20442;-89
2022/07/05 02:58:18;;;;;;;5.30;5.00;;;;;;;;;;4972780;28;20958;-90
2022/07/05 03:00:45;;;;;;;5.13;4.87;;;;;;;;;;4965850;28;20461;-90
2022/07/05 03:03:11;;;;;;;5.63;5.40;;;;;;;;;;4936422;28;20469;-90
2022/07/05 03:05:37;;;;;;;6.50;5.97;;;;;;;;;;4970822;28;20457;-90
2022/07/05 03:08:03;;;;;;;5.10;5.00;;;;;;;;;;4954443;28;20732;-90
2022/07/05 03:10:29;;;;;;;4.73;4.53;;;;;;;;;;4971913;28;20456;-89
2022/07/05 03:12:55;;;;;;;5.20;5.03;;;;;;;;;;4957026;28;20933;-90
2022/07/05 03:15:21;;;;;;;4.80;4.70;;;;;;;;;;4968528;28;20616;-89
2022/07/05 03:17:47;;;;;;;5.63;5.13;;;;;;;;;;4961769;28;20532;-88
2022/07/05 03:20:13;;;;;;;4.80;4.70;;;;;;;;;;4969754;28;20555;-90
2022/07/05 03:22:39;;;;;;;4.00;3.90;;;;;;;;;;4954021;28;20483;-89
2022/07/05 03:25:06;;;;;;;5.07;4.73;;;;;;;;;;4975473;28;20421;-89
2022/07/05 03:27:32;;;;;;;4.97;4.87;;;;;;;;;;4964768;28;20442;-89
2022/07/05 03:29:58;;;;;;;6.60;6.03;;;;;;;;;;4969443;28;20846;-88
2022/07/05 03:32:24;;;;;;;6.20;5.87;;;;;;;;;;4963278;28;20952;-89
2022/07/05 03:34:50;;;;;;;5.07;4.90;;;;;;;;;;4978093;28;20437;-90
2022/07/05 03:37:16;;;;;;;4.70;4.60;;;;;;;;;;4976707;28;20438;-89
2022/07/05 03:39:42;;;;;;;7.87;7.37;;;;;;;;;;4985720;28;20463;-89
2022/07/05 03:42:07;;;;;;;5.43;5.00;;;;;;;;;;4982187;28;20433;-89
2022/07/05 03:44:34;;;;;;;5.60;5.30;;;;;;;;;;4984018;28;20433;-90
2022/07/05 03:47:00;;;;;;;6.60;5.93;;;;;;;;;;4982058;28;20441;-90
2022/07/05 03:49:26;;;;;;;5.80;5.40;;;;;;;;;;4984184;28;20434;-90
2022/07/05 03:51:52;;;;;;;5.00;4.90;;;;;;;;;;4978210;28;20432;-88
2022/07/05 03:54:19;;;;;;;3.70;3.60;;;;;;;;;;4980909;28;20470;-90
2022/07/05 03:56:45;;;;;;;4.37;4.27;;;;;;;;;;4986318;28;20424;-91
2022/07/05 03:59:11;;;;;;;4.40;4.30;;;;;;;;;;4976545;28;20475;-89
2022/07/05 04:01:37;;;;;;;5.27;5.07;;;;;;;;;;4977805;28;20454;-90
2022/07/05 04:04:04;;;;;;;5.73;5.23;;;;;;;;;;4974888;28;20430;-90
2022/07/05 04:06:30;;;;;;;6.27;5.90;;;;;;;;;;4992327;28;20497;-91
2022/07/05 04:08:56;;;;;;;5.27;5.07;;;;;;;;;;4971953;28;20433;-91
2022/07/05 04:11:22;;;;;;;5.47;5.17;;;;;;;;;;4986313;28;20889;-92
2022/07/05 04:13:48;;;;;;;5.80;5.60;;;;;;;;;;4976891;28;20698;-90
2022/07/05 04:16:14;;;;;;;5.30;5.00;;;;;;;;;;4986658;28;20449;-89
2022/07/05 04:18:40;;;;;;;6.20;5.77;;;;;;;;;;4968104;28;20458;-88
2022/07/05 04:21:06;;;;;;;5.97;5.73;;;;;;;;;;4973445;28;20450;-90
2022/07/05 04:23:32;;;;;;;5.07;4.77;;;;;;;;;;4968799;28;20554;-90
2022/07/05 04:26:17;;;;;;;4.50;4.40;;;;;;;;;;4972729;28;20456;-89
2022/07/05 04:28:46;;;;;;;5.77;5.47;;;;;;;;;;4992066;28;20465;-89
2022/07/05 04:31:15;;;;;;;5.60;5.20;;;;;;;;;;4984397;28;20530;-90
2022/07/05 04:33:44;;;;;;;5.20;4.90;;;;;;;;;;4990415;28;20461;-88
2022/07/05 04:36:13;;;;;;;5.70;5.40;;;;;;;;;;4954714;29;20423;-90
2022/07/05 04:38:39;;;;;;;5.13;4.90;;;;;;;;;;4990491;28;20772;-91
2022/07/05 04:41:05;;;;;;;6.07;5.67;;;;;;;;;;4998985;28;20441;-89
2022/07/05 04:43:32;;;;;;;5.67;5.47;;;;;;;;;;4993711;28;20415;-91
2022/07/05 04:45:58;;;;;;;4.40;4.30;;;;;;;;;;4992177;28;20453;-89
2022/07/05 04:48:24;;;;;;;4.50;4.40;;;;;;;;;;4994328;28;20453;-90
2022/07/05 04:50:53;;;;;;;5.30;5.03;;;;;;;;;;4975437;28;20511;-90
2022/07/05 04:53:28;;;;;;;4.60;4.17;;;;;;;;;;4994860;28;20426;-90
2022/07/05 04:55:54;;;;;;;4.53;4.33;;;;;;;;;;4966932;29;20498;-92
2022/07/05 04:58:26;;;;;;;4.27;4.07;;;;;;;;;;4987327;28;20465;-91
2022/07/05 05:00:54;;;;;;;5.60;3.63;;;;;;;;;;4992028;28;20421;-92
2022/07/05 05:03:20;;;;;;;4.17;3.97;;;;;;;;;;4978847;28;20991;-90
2022/07/05 05:05:47;;;;;;;4.20;4.00;;;;;;;;;;4975902;28;20464;-89
2022/07/05 05:08:14;;;;;;;5.20;4.10;;;;;;;;;;4987718;28;20838;-87
2022/07/05 05:10:40;;;;;;;4.53;4.00;;;;;;;;;;4984917;28;20450;-90
2022/07/05 05:13:06;;;;;;;3.73;3.53;;;;;;;;;;4985526;28;20433;-91
2022/07/05 05:15:32;;;;;;;4.23;3.93;;;;;;;;;;4947857;28;20447;-89
2022/07/05 05:17:58;;;;;;;4.57;4.23;;;;;;;;;;4980776;28;20472;-90
2022/07/05 05:20:24;;;;;;;3.90;3.90;;;;;;;;;;4985431;28;20480;-90
2022/07/05 05:22:55;;;;;;;3.70;3.60;;;;;;;;;;4969069;28;20500;-89
2022/07/05 05:25:22;;;;;;;4.00;3.90;;;;;;;;;;4974651;28;20424;-88
2022/07/05 05:27:48;;;;;;;4.37;4.13;;;;;;;;;;4944884;28;20427;-87
2022/07/05 05:30:15;;;;;;;4.43;4.33;;;;;;;;;;4970404;28;20434;-88
2022/07/05 05:32:41;;;;;;;4.43;4.13;;;;;;;;;;4961884;28;20462;-86
2022/07/05 05:35:08;;;;;;;3.83;3.73;;;;;;;;;;4955043;29;20425;-86
2022/07/05 05:37:47;;;;;;;3.77;3.67;;;;;;;;;;4964990;28;20988;-87
2022/07/05 05:40:13;;;;;;;4.27;4.07;;;;;;;;;;4947453;29;20481;-88
2022/07/05 05:42:39;;;;;;;3.40;3.30;;;;;;;;;;4965968;28;20450;-87
2022/07/05 05:45:05;;;;;;;3.47;3.37;;;;;;;;;;4946112;29;20956;-87
2022/07/05 05:47:31;;;;;;;3.50;3.30;;;;;;;;;;4970274;28;20450;-88
2022/07/05 05:49:57;;;;;;;3.90;3.70;;;;;;;;;;4943125;29;20434;-88
2022/07/05 05:52:23;;;;;;;3.30;3.17;;;;;;;;;;4962803;28;20457;-88
2022/07/05 05:54:49;;;;;;;3.70;3.47;;;;;;;;;;4950483;28;21096;-87
2022/07/05 05:57:36;;;;;;;3.60;3.47;;;;;;;;;;4962296;28;20426;-89
2022/07/05 06:00:03;;;;;;;4.03;3.93;;;;;;;;;;4941859;28;20502;-87
2022/07/05 06:02:29;;;;;;;3.27;3.23;;;;;;;;;;4957034;28;20452;-87
2022/07/05 06:04:55;;;;;;;5.80;4.30;;;;;;;;;;4962655;28;20439;-87
2022/07/05 06:07:21;;;;;;;3.97;3.83;;;;;;;;;;4957893;28;20428;-89
2022/07/05 06:09:47;;;;;;;3.90;3.80;;;;;;;;;;4956979;28;20492;-89
2022/07/05 06:12:14;;;;;;;3.90;3.90;;;;;;;;;;4968692;28;21118;-89
2022/07/05 06:14:40;;;;;;;4.20;3.90;;;;;;;;;;4951319;28;20514;-89
2022/07/05 06:17:06;;;;;;;3.50;3.27;;;;;;;;;;4958651;28;20434;-88
2022/07/05 06:19:32;;;;;;;4.93;4.60;;;;;;;;;;4942063;28;20482;-89
2022/07/05 06:22:04;;;;;;;3.40;3.20;;;;;;;;;;4953131;28;20814;-87
2022/07/05 06:24:30;;;;;;;3.67;3.57;;;;;;;;;;4941155;29;20497;-89
2022/07/05 06:26:56;;;;;;;4.63;4.53;;;;;;;;;;4978226;28;20512;-90
2022/07/05 06:29:22;;;;;;;3.33;3.23;;;;;;;;;;4955134;28;20442;-90
2022/07/05 06:31:48;;;;;;;3.60;3.30;;;;;;;;;;4979824;28;20472;-91
2022/07/05 06:34:14;;;;;;;3.30;3.20;;;;;;;;;;4957758;28;20506;-90
2022/07/05 06:36:40;;;;;;;2.80;2.80;;;;;;;;;;4986834;28;20433;-89
2022/07/05 06:39:06;;;;;;;3.50;3.40;;;;;;;;;;4972596;28;20481;-90
2022/07/05 06:41:53;;;;;;;3.73;3.40;;;;;;;;;;4970773;28;20937;-89
2022/07/05 06:44:22;;;;;;;2.30;2.23;;;;;;;;;;4970019;28;20464;-89
2022/07/05 06:46:58;;;;;;;2.10;2.10;;;;;;;;;;4973261;28;21243;-94
2022/07/05 06:50:03;;;;;;;2.30;2.20;;;;;;;;;;4968615;28;20517;-89
2022/07/05 06:58:37;;;;;;;4.67;2.90;;;;;;;;;;4879216;29;20488;-90
2022/07/05 07:03:58;;;;;;;2.10;2.10;;;;;;;;;;4921560;28;20509;-88
2022/07/05 07:06:24;;;;;;;3.93;3.90;;;;;;;;;;4967450;28;20466;-89
2022/07/05 07:11:35;;;;;;;2.20;2.20;;;;;;;;;;4952190;29;20525;-89
2022/07/05 07:14:01;;;;;;;2.03;2.03;;;;;;;;;;4967170;28;20448;-86
2022/07/05 07:16:30;;;;;;;2.73;2.63;;;;;;;;;;4972545;28;20437;-88
2022/07/05 07:18:56;;;;;;;2.33;2.23;;;;;;;;;;4962203;28;21122;-88
2022/07/05 07:21:34;;;;;;;2.40;2.40;;;;;;;;;;4965905;28;20438;-88
2022/07/05 07:24:00;;;;;;;2.73;2.30;;;;;;;;;;4956866;28;20429;-88
2022/07/05 07:27:02;;;;;;;1.80;1.70;;;;;;;;;;4980308;28;20923;-91
2022/07/05 07:29:23;;;;;;;2.40;2.40;;;;;;;;;;4942258;29;20423;-89
2022/07/05 07:31:49;;;;;;;2.73;2.63;;;;;;;;;;4962376;28;20471;-88
2022/07/05 07:34:15;;;;;;;2.27;2.27;;;;;;;;;;4953669;28;20469;-86
2022/07/05 07:36:41;;;;;;;1.90;1.90;;;;;;;;;;4960755;28;20461;-86
2022/07/05 07:39:07;;;;;;;2.57;2.47;;;;;;;;;;4944446;28;20469;-87
2022/07/05 07:41:33;;;;;;;1.63;1.60;;;;;;;;;;4951097;28;20446;-86
2022/07/05 07:43:59;;;;;;;2.27;2.20;;;;;;;;;;4952528;28;20446;-86
2022/07/05 07:46:25;;;;;;;4.50;3.10;;;;;;;;;;4954938;28;20449;-88
2022/07/05 07:48:51;;;;;;;1.70;1.70;;;;;;;;;;4960146;28;20478;-87
2022/07/05 07:51:21;;;;;;;2.13;2.13;;;;;;;;;;4950387;28;20524;-87
2022/07/05 07:53:47;;;;;;;2.07;1.93;;;;;;;;;;4968259;28;20457;-87
2022/07/05 07:56:13;;;;;;;4.73;3.10;;;;;;;;;;4962240;28;20445;-87
2022/07/05 07:58:39;;;;;;;2.60;2.50;;;;;;;;;;4952460;28;20450;-86
2022/07/05 08:01:10;;;;;;;2.90;2.70;;;;;;;;;;4945020;28;20462;-86
2022/07/05 08:03:36;;;;;;;2.00;2.00;;;;;;;;;;4592663;28;10000373;-86
2022/07/05 08:06:02;;;;;;;2.67;2.60;;;;;;;;;;4948068;28;20437;-87
2022/07/05 08:08:34;;;;;;;3.63;2.70;;;;;;;;;;4950304;28;20965;-88
2022/07/05 08:11:00;;;;;;;2.37;2.37;;;;;;;;;;4951816;29;20452;-87
2022/07/05 08:13:26;;;;;;;2.70;2.50;;;;;;;;;;4955046;28;20449;-87
2022/07/05 08:15:52;;;;;;;2.57;2.37;;;;;;;;;;4950832;29;20517;-86
2022/07/05 08:23:48;;;;;;;2.53;2.43;;;;;;;;;;4942441;28;20496;-88
2022/07/05 08:26:14;;;;;;;2.50;2.40;;;;;;;;;;4959817;28;20433;-86
2022/07/05 08:28:40;;;;;;;5.07;2.50;;;;;;;;;;4966386;28;20424;-86
2022/07/05 08:31:06;;;;;;;2.67;2.60;;;;;;;;;;4965149;28;20410;-87
2022/07/05 08:33:32;;;;;;;4.63;2.67;;;;;;;;;;4963756;28;21047;-86
2022/07/05 08:35:58;;;;;;;7.13;3.70;;;;;;;;;;4951523;29;20548;-87
2022/07/05 08:38:24;;;;;;;2.40;2.20;;;;;;;;;;4952759;28;21093;-87
2022/07/05 08:40:50;;;;;;;2.93;2.83;;;;;;;;;;4956873;28;20473;-86
2022/07/05 08:43:17;;;;;;;2.70;2.40;;;;;;;;;;4971224;28;20589;-87
2022/07/05 08:45:49;;;;;;;2.57;2.57;;;;;;;;;;4962694;28;20512;-90
2022/07/05 08:48:19;;;;;;;2.40;2.20;;;;;;;;;;4973353;28;20936;-90
2022/07/05 08:50:48;;;;;;;2.10;2.00;;;;;;;;;;4952560;28;20565;-90
2022/07/05 08:53:19;;;;;;;3.00;2.77;;;;;;;;;;4979919;28;20464;-91
2022/07/05 08:55:46;;;;;;;3.80;2.53;;;;;;;;;;4972007;28;20521;-89
2022/07/05 08:58:12;;;;;;;2.47;2.33;;;;;;;;;;4960985;28;20484;-90
2022/07/05 09:00:42;;;;;;;2.47;2.33;;;;;;;;;;4959345;28;20533;-89
2022/07/05 09:03:08;;;;;;;2.80;2.63;;;;;;;;;;4962994;28;20453;-88
2022/07/05 09:05:44;;;;;;;3.20;3.10;;;;;;;;;;4970815;28;20426;-90
2022/07/05 09:08:11;;;;;;;3.43;3.07;;;;;;;;;;4943338;29;20446;-90
2022/07/05 09:13:44;;;;;;;3.03;2.50;;;;;;;;;;4630592;28;9999905;-87
2022/07/05 09:16:15;;;;;;;3.27;3.00;;;;;;;;;;4940747;29;20191;-90
2022/07/05 09:18:54;;;;;;;2.50;2.40;;;;;;;;;;4953435;28;20529;-89
2022/07/05 09:21:21;;;;;;;2.13;2.13;;;;;;;;;;4957643;28;20533;-89
2022/07/05 09:24:04;;;;;;;2.37;2.20;;;;;;;;;;4962177;28;20490;-89
2022/07/05 09:26:34;;;;;;;2.27;2.17;;;;;;;;;;4953299;29;20465;-89
2022/07/05 09:29:00;;;;;;;2.53;2.43;;;;;;;;;;4956814;28;20446;-89
2022/07/05 09:31:34;;;;;;;2.10;2.10;;;;;;;;;;4955457;29;20427;-90
2022/07/05 09:34:10;;;;;;;2.10;2.00;;;;;;;;;;4951733;28;20506;-89
2022/07/05 09:36:49;;;;;;;2.13;2.03;;;;;;;;;;4954099;29;20480;-89
2022/07/05 09:39:15;;;;;;;2.93;2.40;;;;;;;;;;4956009;28;20474;-91
2022/07/05 09:41:41;;;;;;;3.37;1.90;;;;;;;;;;4970333;28;20469;-90
2022/07/05 09:44:07;;;;;;;1.60;1.50;;;;;;;;;;4955578;28;20437;-88
2022/07/05 09:46:33;;;;;;;2.00;2.00;;;;;;;;;;4964095;28;20458;-89
2022/07/05 09:49:00;;;;;;;1.80;1.80;;;;;;;;;;4950058;29;20446;-90
2022/07/05 09:51:29;;;;;;;1.43;1.43;;;;;;;;;;4971110;28;20507;-91
2022/07/05 09:53:59;;;;;;;1.90;1.50;;;;;;;;;;4957944;28;20442;-88
2022/07/05 09:56:29;;;;;;;1.90;1.90;;;;;;;;;;4957628;28;20605;-89
2022/07/05 09:58:55;;;;;;;1.53;1.53;;;;;;;;;;4959780;28;20593;-90
2022/07/05 10:01:24;;;;;;;1.50;1.50;;;;;;;;;;4962616;28;20446;-88
2022/07/05 10:03:55;;;;;;;1.50;1.40;;;;;;;;;;4957139;29;20418;-88
2022/07/05 10:06:23;;;;;;;3.10;1.37;;;;;;;;;;4959550;28;20430;-88
2022/07/05 10:08:49;;;;;;;2.00;1.50;;;;;;;;;;4966428;28;20537;-90
2022/07/05 10:11:18;;;;;;;2.60;1.37;;;;;;;;;;4958747;28;20485;-89
2022/07/05 10:13:45;;;;;;;1.30;1.30;;;;;;;;;;4983988;28;20413;-89
2022/07/05 10:16:11;;;;;;;1.57;1.57;;;;;;;;;;4978157;28;20488;-90
2022/07/05 10:18:38;;;;;;;1.70;1.70;;;;;;;;;;4978861;28;20440;-90
2022/07/05 10:21:05;;;;;;;1.80;1.80;;;;;;;;;;4974700;28;20719;-90
2022/07/05 10:23:32;;;;;;;1.57;1.57;;;;;;;;;;4955246;28;20962;-91
2022/07/05 10:26:00;;;;;;;1.47;1.47;;;;;;;;;;4977492;28;20424;-87
2022/07/05 10:28:27;;;;;;;2.17;2.17;;;;;;;;;;4960875;28;20545;-90
2022/07/05 10:30:54;;;;;;;2.10;2.10;;;;;;;;;;4958815;28;20473;-87
2022/07/05 10:33:25;;;;;;;1.97;1.87;;;;;;;;;;4976631;28;20467;-90
2022/07/05 10:35:51;;;;;;;1.80;1.50;;;;;;;;;;4961652;28;20461;-86
2022/07/05 10:38:17;;;;;;;2.23;1.37;;;;;;;;;;4960924;28;20454;-89
2022/07/05 10:40:47;;;;;;;1.47;1.47;;;;;;;;;;4968429;28;20513;-89
2022/07/05 10:43:13;;;;;;;1.90;1.87;;;;;;;;;;4964155;28;20438;-88
2022/07/05 10:45:41;;;;;;;1.90;1.90;;;;;;;;;;4965702;28;20439;-89
2022/07/05 10:48:16;;;;;;;1.50;1.50;;;;;;;;;;4961026;28;20442;-86
2022/07/05 10:50:52;;;;;;;1.67;1.67;;;;;;;;;;4605852;28;10000033;-88
2022/07/05 10:53:22;;;;;;;1.87;1.77;;;;;;;;;;4969789;28;20206;-87
2022/07/05 10:55:49;;;;;;;1.90;1.90;;;;;;;;;;4954472;29;20426;-87
2022/07/05 10:58:36;;;;;;;1.70;1.60;;;;;;;;;;4963448;28;20430;-89
2022/07/05 11:01:20;;;;;;;1.70;1.70;;;;;;;;;;4954172;29;20509;-87
2022/07/05 11:03:57;;;;;;;2.10;2.00;;;;;;;;;;4956651;28;20597;-89
2022/07/05 11:06:41;;;;;;;1.60;1.60;;;;;;;;;;4967225;28;20429;-90
2022/07/05 11:09:10;;;;;;;2.43;1.80;;;;;;;;;;4945360;28;20450;-89
2022/07/05 11:11:37;;;;;;;1.70;1.70;;;;;;;;;;4941349;29;20442;-87
2022/07/05 11:14:25;;;;;;;1.50;1.50;;;;;;;;;;4959636;28;21154;-88
2022/07/05 11:17:10;;;;;;;1.80;1.80;;;;;;;;;;4950801;28;20442;-88
2022/07/05 11:19:55;;;;;;;2.20;2.07;;;;;;;;;;4956338;28;20900;-87
2022/07/05 11:22:21;;;;;;;1.70;1.70;;;;;;;;;;4952913;28;20533;-91
2022/07/05 11:24:47;;;;;;;2.67;2.60;;;;;;;;;;4940776;28;20582;-91
2022/07/05 11:27:13;;;;;;;2.20;2.00;;;;;;;;;;4953234;28;20438;-86
2022/07/05 11:29:49;;;;;;;1.83;1.73;;;;;;;;;;4945176;28;20453;-89
2022/07/05 11:32:17;;;;;;;2.17;2.07;;;;;;;;;;4980774;28;20436;-85
2022/07/05 11:34:44;;;;;;;1.63;1.63;;;;;;;;;;4951803;28;20438;-85
2022/07/05 11:37:19;;;;;;;4.90;2.17;;;;;;;;;;4951647;28;20697;-87
2022/07/05 11:40:05;;;;;;;2.40;2.30;;;;;;;;;;4957290;28;20457;-86
2022/07/05 11:42:57;;;;;;;4.73;2.30;;;;;;;;;;4943589;28;20442;-84
2022/07/05 11:45:25;;;;;;;2.83;2.20;;;;;;;;;;4953247;28;20449;-85
2022/07/05 11:48:04;;;;;;;2.80;2.60;;;;;;;;;;4957109;29;20427;-88
2022/07/05 11:50:56;;;;;;;2.57;2.57;;;;;;;;;;4948616;28;20438;-87
2022/07/05 11:53:42;;;;;;;1.90;1.90;;;;;;;;;;4961326;28;20446;-86
2022/07/05 11:56:17;;;;;;;2.20;2.10;;;;;;;;;;4960957;29;20963;-88
2022/07/05 11:59:17;;;;;;;1.97;1.87;;;;;;;;;;4939926;29;20484;-88
2022/07/05 12:01:52;;;;;;;1.50;1.50;;;;;;;;;;4956713;28;20807;-87
2022/07/05 12:04:57;;;;;;;;;;;;;;;;;;;;;
2022/07/05 12:07:45;;;;;;;1.83;1.70;;;;;;;;;;4935083;28;20460;-87
2022/07/05 12:13:10;;;;;;;1.67;1.67;;;;;;;;;;4956243;28;20430;-88
2022/07/05 12:15:39;;;;;;;1.30;1.30;;;;;;;;;;4974091;28;20439;-87
2022/07/05 12:18:11;;;;;;;1.80;1.77;;;;;;;;;;4963075;28;20429;-85
2022/07/05 12:20:40;;;;;;;1.40;1.40;;;;;;;;;;4953983;29;20483;-87
2022/07/05 12:23:45;;;;;;;2.13;1.73;;;;;;;;;;4972557;28;20441;-87
2022/07/05 12:26:49;;;;;;;1.50;1.50;;;;;;;;;;4948061;28;20493;-88
2022/07/05 12:29:44;;;;;;;1.37;1.37;;;;;;;;;;4927041;29;20416;-87
2022/07/05 12:32:24;;;;;;;1.67;1.67;;;;;;;;;;4947831;28;20443;-86
2022/07/05 12:35:02;;;;;;;2.30;2.07;;;;;;;;;;4945984;29;20454;-87
2022/07/05 12:37:53;;;;;;;2.37;2.23;;;;;;;;;;4951581;29;20528;-88
2022/07/05 13:55:16;;;;;;;3.53;2.43;;;;;;;;;;4967450;28;20498;-90
2022/07/05 13:57:59;;;;;;;2.27;2.07;;;;;;;;;;4938643;28;21128;-92
2022/07/05 14:00:47;;;;;;;1.90;1.80;;;;;;;;;;4964490;28;20469;-89
2022/07/05 14:19:56;;;;;;;2.50;2.40;;;;;;;;;;4967084;28;20497;-93
2022/07/05 14:22:22;;;;;;;3.83;2.63;;;;;;;;;;4953081;28;20434;-92
2022/07/05 14:24:48;;;;;;;3.40;3.20;;;;;;;;;;4970691;28;20492;-89
2022/07/05 14:27:14;;;;;;;3.13;2.90;;;;;;;;;;4986537;28;20409;-91
2022/07/05 14:29:41;;;;;;;3.00;2.80;;;;;;;;;;4970857;28;20504;-91
2022/07/05 14:34:54;;;;;;;3.40;3.27;;;;;;;;;;5205369;23;20547;-88
2022/07/05 14:37:24;;;;;;;3.27;3.07;;;;;;;;;;4950772;29;20435;-89
2022/07/05 14:39:50;;;;;;;3.57;3.40;;;;;;;;;;4997115;28;20467;-87
2022/07/05 14:42:16;;;;;;;3.47;3.40;;;;;;;;;;4986776;28;20434;-88
2022/07/05 14:44:43;;;;;;;3.80;3.70;;;;;;;;;;4986316;28;20445;-91
2022/07/05 14:47:10;;;;;;;3.67;3.60;;;;;;;;;;4985676;28;20457;-91
2022/07/05 14:49:36;;;;;;;3.93;3.73;;;;;;;;;;4986368;28;20433;-89
2022/07/05 14:52:02;;;;;;;3.53;3.33;;;;;;;;;;4988252;28;20437;-88
2022/07/05 14:54:28;;;;;;;3.77;3.20;;;;;;;;;;4982095;28;20496;-89
2022/07/05 14:57:04;;;;;;;3.17;3.00;;;;;;;;;;4988836;28;20426;-90
2022/07/05 14:59:30;;;;;;;4.03;3.43;;;;;;;;;;4984789;28;20492;-88
2022/07/05 15:01:56;;;;;;;3.33;3.13;;;;;;;;;;4988539;28;20448;-88
2022/07/05 15:04:22;;;;;;;4.30;3.90;;;;;;;;;;4978048;28;20488;-89
2022/07/05 15:06:48;;;;;;;4.30;4.00;;;;;;;;;;4965497;28;20557;-90
2022/07/05 15:09:20;;;;;;;3.63;3.43;;;;;;;;;;4984871;28;20437;-89
2022/07/05 15:11:46;;;;;;;3.87;3.67;;;;;;;;;;4986578;28;20436;-87
2022/07/05 15:14:12;;;;;;;4.60;4.40;;;;;;;;;;4967151;28;20494;-88
2022/07/05 15:16:44;;;;;;;4.17;3.97;;;;;;;;;;4988905;28;21019;-90
2022/07/05 15:19:13;;;;;;;4.20;3.90;;;;;;;;;;4952209;28;20474;-89
2022/07/05 15:21:40;;;;;;;4.40;4.10;;;;;;;;;;4972251;28;20453;-90
2022/07/05 15:24:06;;;;;;;3.53;3.30;;;;;;;;;;4989308;28;20421;-91
2022/07/05 15:26:32;;;;;;;6.37;4.37;;;;;;;;;;4985862;28;20409;-91
2022/07/05 15:29:06;;;;;;;3.93;3.83;;;;;;;;;;4967711;28;20461;-91
2022/07/05 15:31:35;;;;;;;3.83;3.63;;;;;;;;;;4981917;28;20449;-91
2022/07/05 15:34:02;;;;;;;4.73;4.53;;;;;;;;;;4977224;28;20540;-89
2022/07/05 15:36:32;;;;;;;6.27;5.83;;;;;;;;;;4927731;29;20435;-90
2022/07/05 15:39:00;;;;;;;4.03;3.87;;;;;;;;;;4966015;29;20489;-92
2022/07/05 15:41:29;;;;;;;4.13;3.97;;;;;;;;;;4928888;29;20447;-92
2022/07/05 15:43:58;;;;;;;5.10;4.97;;;;;;;;;;4946527;29;20439;-89
2022/07/05 15:49:43;;;;;;;4.50;4.37;;;;;;;;;;4947534;29;20418;-91
2022/07/05 15:52:12;;;;;;;4.70;4.53;;;;;;;;;;4926380;29;20519;-90
2022/07/05 15:54:38;;;;;;;4.50;4.20;;;;;;;;;;4953492;29;20445;-88
2022/07/05 15:57:11;;;;;;;4.33;4.00;;;;;;;;;;4952681;29;20426;-91
2022/07/05 15:59:44;;;;;;;8.13;4.00;;;;;;;;;;4910355;29;20475;-90
2022/07/05 16:02:10;;;;;;;3.60;3.50;;;;;;;;;;4931002;29;20439;-91
2022/07/05 16:04:39;;;;;;;4.20;4.00;;;;;;;;;;4949783;29;20442;-94
2022/07/05 16:07:07;;;;;;;3.80;3.70;;;;;;;;;;4932026;29;20538;-92
2022/07/05 16:09:33;;;;;;;8.63;4.07;;;;;;;;;;4930433;29;20436;-91
2022/07/05 16:11:59;;;;;;;3.70;3.43;;;;;;;;;;4968900;29;20462;-90
2022/07/05 16:14:31;;;;;;;3.90;3.70;;;;;;;;;;4934294;29;20427;-91
2022/07/05 16:16:58;;;;;;;4.00;3.57;;;;;;;;;;4952655;29;20202;-92
2022/07/05 16:24:42;;;;;;;4.00;3.73;;;;;;;;;;3772374;23;10001560;-89
2022/07/05 16:27:08;;;;;;;4.10;3.90;;;;;;;;;;4971019;28;20208;-93
2022/07/05 16:29:50;;;;;;;4.10;4.00;;;;;;;;;;4989569;28;20748;-93
2022/07/05 16:32:16;;;;;;;3.63;3.43;;;;;;;;;;4960814;28;20619;-89
2022/07/05 16:35:09;;;;;;;5.70;3.90;;;;;;;;;;5007233;28;20428;-91
2022/07/05 16:37:55;;;;;;;3.57;3.57;;;;;;;;;;4973202;28;20422;-91
2022/07/05 16:40:27;;;;;;;4.20;3.87;;;;;;;;;;4973800;28;20458;-92
2022/07/05 16:43:06;;;;;;;3.60;3.50;;;;;;;;;;5010682;28;20428;-92
2022/07/05 16:45:44;;;;;;;3.27;3.27;;;;;;;;;;5120544;23;20476;-91
2022/07/05 16:48:10;;;;;;;3.77;3.53;;;;;;;;;;5002084;28;20433;-86
2022/07/05 16:50:36;;;;;;;3.90;3.40;;;;;;;;;;4991998;28;20535;-85
2022/07/05 16:53:03;;;;;;;3.57;3.47;;;;;;;;;;4995770;28;20475;-88
2022/07/05 16:55:31;;;;;;;3.70;3.00;;;;;;;;;;5006206;28;20421;-91
2022/07/05 16:58:02;;;;;;;3.70;3.50;;;;;;;;;;4993032;28;20437;-90
2022/07/05 17:00:28;;;;;;;3.20;3.10;;;;;;;;;;4972193;28;20469;-92
2022/07/05 17:02:55;;;;;;;3.00;2.90;;;;;;;;;;4986205;28;20442;-90
2022/07/05 17:05:22;;;;;;;2.93;2.83;;;;;;;;;;4966249;28;20728;-89